createdAt,value
2019-05-28T00:01:49.676Z,2.57
2019-05-28T00:04:19.139Z,2.43
2019-05-28T00:07:13.257Z,2.60
2019-05-28T00:09:42.782Z,2.30
2019-05-28T00:12:14.014Z,2.17
2019-05-28T00:14:43.516Z,2.20
2019-05-28T00:17:38.397Z,2.20
2019-05-28T00:20:08.609Z,2.43
2019-05-28T00:22:38.500Z,2.70
2019-05-28T00:25:09.103Z,2.70
2019-05-28T00:27:38.618Z,2.70
2019-05-28T00:30:19.310Z,2.60
2019-05-28T00:35:25.546Z,2.70
2019-05-28T00:37:55.067Z,2.50
2019-05-28T00:40:24.663Z,2.57
2019-05-28T00:42:54.709Z,2.87
2019-05-28T00:45:24.205Z,2.60
2019-05-28T00:47:53.685Z,2.73
2019-05-28T00:50:23.153Z,2.90
2019-05-28T00:52:52.582Z,2.80
2019-05-28T00:55:22.144Z,2.90
2019-05-28T00:57:53.256Z,2.90
2019-05-28T01:06:53.188Z,3.20
2019-05-28T01:09:22.645Z,3.03
2019-05-28T01:11:52.151Z,3.20
2019-05-28T01:14:21.614Z,3.20
2019-05-28T01:16:51.161Z,3.43
2019-05-28T01:19:22.500Z,3.80
2019-05-28T01:21:51.705Z,3.50
2019-05-28T01:24:21.211Z,3.40
2019-05-28T01:26:51.754Z,3.60
2019-05-28T01:29:21.251Z,3.70
2019-05-28T01:31:50.866Z,3.90
2019-05-28T01:37:06.270Z,3.63
2019-05-28T01:39:35.715Z,3.87
2019-05-28T01:42:05.234Z,3.70
2019-05-28T01:44:34.712Z,3.70
2019-05-28T01:47:04.236Z,4.47
2019-05-28T01:49:36.785Z,4.73
2019-05-28T01:55:05.538Z,4.40
2019-05-28T01:57:35.113Z,4.17
2019-05-28T02:00:06.314Z,4.10
2019-05-28T02:02:38.543Z,4.40
2019-05-28T02:05:09.092Z,4.10
2019-05-28T02:07:38.600Z,4.63
2019-05-28T02:10:08.870Z,4.00
2019-05-28T02:12:38.302Z,3.87
2019-05-28T02:15:10.821Z,4.17
2019-05-28T02:17:40.286Z,4.83
2019-05-28T02:20:10.018Z,4.60
2019-05-28T02:22:39.675Z,4.97
2019-05-28T02:28:10.665Z,4.83
2019-05-28T02:30:40.155Z,4.67
2019-05-28T02:33:09.712Z,4.67
2019-05-28T02:35:39.552Z,5.80
2019-05-28T02:43:53.747Z,5.00
2019-05-28T02:46:23.311Z,4.83
2019-05-28T02:48:52.802Z,5.10
2019-05-28T02:51:47.711Z,4.73
2019-05-28T02:54:17.252Z,4.60
2019-05-28T02:56:49.552Z,4.77
2019-05-28T02:59:18.989Z,4.77
2019-05-28T03:01:55.094Z,5.03
2019-05-28T03:04:26.043Z,4.73
2019-05-28T03:06:57.364Z,5.00
2019-05-28T03:09:27.086Z,5.27
2019-05-28T03:11:56.640Z,5.10
2019-05-28T03:14:27.351Z,4.83
2019-05-28T03:17:01.124Z,5.30
2019-05-28T03:19:32.162Z,5.07
2019-05-28T03:25:02.691Z,4.70
2019-05-28T03:27:32.245Z,5.23
2019-05-28T03:30:01.807Z,5.40
2019-05-28T03:32:31.270Z,5.17
2019-05-28T03:35:00.817Z,5.70
2019-05-28T03:37:32.761Z,5.13
2019-05-28T03:40:04.787Z,5.37
2019-05-28T03:42:34.260Z,5.97
2019-05-28T03:45:04.233Z,5.23
2019-05-28T03:47:35.310Z,5.40
2019-05-28T03:50:05.195Z,6.17
2019-05-28T03:52:34.837Z,6.90
2019-05-28T03:55:04.392Z,6.23
2019-05-28T03:57:34.172Z,7.70
2019-05-28T04:00:03.728Z,5.57
2019-05-28T04:02:33.190Z,5.20
2019-05-28T04:05:02.772Z,5.50
2019-05-28T04:07:32.291Z,5.70
2019-05-28T04:10:01.796Z,5.43
2019-05-28T04:12:31.251Z,5.40
2019-05-28T04:15:00.713Z,5.87
2019-05-28T04:17:30.501Z,5.30
2019-05-28T04:19:59.973Z,5.77
2019-05-28T04:22:29.422Z,6.10
2019-05-28T04:25:00.143Z,6.50
2019-05-28T04:27:30.222Z,7.17
2019-05-28T04:30:00.124Z,7.60
2019-05-28T04:32:40.145Z,8.13
2019-05-28T04:35:00.786Z,7.23
2019-05-28T04:37:30.260Z,6.13
2019-05-28T04:39:59.831Z,6.40
2019-05-28T04:42:29.327Z,6.63
2019-05-28T04:45:00.494Z,6.23
2019-05-28T04:47:29.962Z,6.70
2019-05-28T04:49:59.469Z,7.00
2019-05-28T04:52:30.857Z,7.07
2019-05-28T04:55:00.131Z,7.07
2019-05-28T04:57:29.591Z,6.90
2019-05-28T05:00:01.327Z,6.93
2019-05-28T05:02:30.776Z,7.53
2019-05-28T05:05:00.759Z,7.10
2019-05-28T05:07:30.971Z,7.70
2019-05-28T05:10:00.844Z,7.93
2019-05-28T05:12:30.408Z,7.47
2019-05-28T05:14:59.919Z,7.57
2019-05-28T05:17:29.430Z,7.87
2019-05-28T05:19:58.867Z,8.30
2019-05-28T05:22:28.330Z,7.70
2019-05-28T05:24:59.025Z,9.63
2019-05-28T05:27:28.544Z,8.97
2019-05-28T05:29:58.052Z,9.07
2019-05-28T05:32:27.936Z,9.70
2019-05-28T05:34:57.561Z,11.83
2019-05-28T05:37:27.059Z,13.63
2019-05-28T05:39:56.626Z,14.97
2019-05-28T05:42:26.103Z,14.17
2019-05-28T05:44:55.721Z,14.07
2019-05-28T05:47:25.947Z,11.00
2019-05-28T05:49:55.708Z,12.97
2019-05-28T05:52:25.204Z,11.10
2019-05-28T05:54:55.720Z,9.73
2019-05-28T05:57:25.233Z,7.57
2019-05-28T05:59:54.716Z,7.17
2019-05-28T06:02:24.421Z,6.83
2019-05-28T06:04:58.366Z,7.37
2019-05-28T06:07:27.979Z,6.87
2019-05-28T06:09:57.751Z,6.20
2019-05-28T06:12:27.330Z,5.60
2019-05-28T06:14:56.804Z,5.70
2019-05-28T06:17:26.305Z,6.03
2019-05-28T06:19:55.851Z,5.80
2019-05-28T06:22:25.417Z,6.07
2019-05-28T06:24:55.010Z,6.13
2019-05-28T06:27:24.612Z,6.97
2019-05-28T06:29:54.095Z,7.77
2019-05-28T06:32:23.663Z,7.10
2019-05-28T06:34:53.199Z,7.27
2019-05-28T06:37:22.730Z,6.87
2019-05-28T06:39:52.285Z,8.97
2019-05-28T06:42:21.913Z,10.50
2019-05-28T06:44:51.502Z,11.30
2019-05-28T06:47:21.166Z,10.10
2019-05-28T06:49:50.675Z,10.50
2019-05-28T06:52:20.243Z,9.33
2019-05-28T06:54:49.733Z,10.20
2019-05-28T06:57:22.926Z,10.23
2019-05-28T06:59:50.439Z,11.03
2019-05-28T07:02:19.943Z,17.63
2019-05-28T07:04:49.508Z,17.03
2019-05-28T07:07:19.155Z,12.40
2019-05-28T07:09:48.597Z,11.67
2019-05-28T07:12:18.500Z,11.27
2019-05-28T07:14:48.035Z,11.77
2019-05-28T07:17:17.531Z,10.63
2019-05-28T07:19:47.031Z,10.67
2019-05-28T07:22:16.494Z,11.20
2019-05-28T07:24:46.082Z,10.27
2019-05-28T07:27:15.663Z,9.87
2019-05-28T07:29:45.179Z,9.50
2019-05-28T07:32:14.805Z,9.60
2019-05-28T07:34:44.388Z,9.17
2019-05-28T07:37:13.878Z,8.50
2019-05-28T07:39:43.410Z,8.80
2019-05-28T07:42:12.882Z,7.43
2019-05-28T07:44:42.341Z,8.03
2019-05-28T07:47:11.833Z,8.03
2019-05-28T07:50:07.415Z,7.60
2019-05-28T07:52:36.922Z,7.40
2019-05-28T07:55:06.682Z,7.23
2019-05-28T07:57:36.228Z,6.80
2019-05-28T08:00:07.075Z,6.70
2019-05-28T08:02:36.604Z,7.03
2019-05-28T08:05:06.839Z,6.47
2019-05-28T08:07:36.420Z,7.10
2019-05-28T08:10:07.520Z,6.77
2019-05-28T08:12:37.220Z,6.23
2019-05-28T08:15:07.338Z,6.00
2019-05-28T08:17:36.901Z,6.43
2019-05-28T08:20:06.602Z,5.70
2019-05-28T08:22:42.349Z,5.63
2019-05-28T08:25:23.654Z,4.97
2019-05-28T08:27:39.534Z,5.10
2019-05-28T08:30:10.201Z,4.47
2019-05-28T08:32:39.698Z,4.50
2019-05-28T08:35:09.317Z,4.83
2019-05-28T08:37:38.882Z,4.17
2019-05-28T08:40:09.145Z,4.63
2019-05-28T08:42:38.700Z,5.07
2019-05-28T08:45:09.049Z,5.40
2019-05-28T08:47:38.954Z,5.60
2019-05-28T08:50:10.032Z,4.00
2019-05-28T08:52:39.666Z,3.57
2019-05-28T08:55:09.471Z,3.00
2019-05-28T08:57:39.546Z,3.27
2019-05-28T09:00:11.200Z,3.17
2019-05-28T09:02:40.709Z,3.63
2019-05-28T09:05:25.340Z,3.60
2019-05-28T09:07:41.586Z,3.73
2019-05-28T09:10:11.235Z,4.00
2019-05-28T09:15:46.402Z,3.40
2019-05-28T09:18:17.828Z,3.60
2019-05-28T09:20:47.083Z,3.93
2019-05-28T09:23:40.254Z,4.50
2019-05-28T09:28:56.007Z,3.87
2019-05-28T09:31:25.579Z,4.80
2019-05-28T09:33:57.051Z,4.13
2019-05-28T09:36:26.267Z,3.70
2019-05-28T09:38:55.790Z,3.10
2019-05-28T09:41:25.815Z,4.27
2019-05-28T09:43:55.359Z,4.77
2019-05-28T09:46:24.810Z,4.80
2019-05-28T09:48:54.305Z,4.07
2019-05-28T09:51:23.854Z,5.00
2019-05-28T09:53:53.346Z,4.47
2019-05-28T09:56:22.836Z,4.27
2019-05-28T09:58:52.337Z,4.10
2019-05-28T10:01:22.076Z,4.87
2019-05-28T10:03:51.638Z,5.40
2019-05-28T10:06:34.577Z,5.60
2019-05-28T10:08:52.267Z,5.27
2019-05-28T10:11:21.853Z,5.30
2019-05-28T10:13:51.311Z,5.57
2019-05-28T10:16:20.795Z,5.23
2019-05-28T10:18:50.319Z,5.30
2019-05-28T10:21:19.831Z,5.20
2019-05-28T10:23:49.324Z,4.90
2019-05-28T10:26:18.851Z,5.00
2019-05-28T10:28:50.566Z,5.30
2019-05-28T10:31:19.910Z,5.30
2019-05-28T10:33:49.475Z,5.00
2019-05-28T10:36:34.456Z,4.90
2019-05-28T10:38:50.315Z,4.93
2019-05-28T10:41:19.896Z,4.03
2019-05-28T10:43:49.354Z,3.83
2019-05-28T10:46:18.855Z,3.17
2019-05-28T10:48:48.355Z,3.23
2019-05-28T11:00:15.744Z,4.17
2019-05-28T11:02:45.243Z,4.20
2019-05-28T11:05:15.441Z,4.00
2019-05-28T11:07:44.977Z,4.43
2019-05-28T11:10:23.793Z,4.23
2019-05-28T11:12:46.097Z,4.20
2019-05-28T11:15:18.782Z,4.10
2019-05-28T11:17:48.313Z,4.20
2019-05-28T11:20:18.570Z,4.50
2019-05-28T11:22:50.130Z,4.53
2019-05-28T11:25:21.217Z,4.60
2019-05-28T11:27:50.786Z,4.23
2019-05-28T11:30:22.074Z,4.23
2019-05-28T11:32:51.630Z,4.00
2019-05-28T11:35:21.497Z,3.93
2019-05-28T11:37:51.058Z,4.03
2019-05-28T11:40:24.214Z,3.90
2019-05-28T11:42:53.678Z,3.87
2019-05-28T11:45:23.420Z,3.50
2019-05-28T11:47:52.961Z,3.40
2019-05-28T11:50:22.470Z,3.30
2019-05-28T11:52:51.959Z,3.27
2019-05-28T11:55:21.902Z,3.00
2019-05-28T11:57:51.599Z,3.10
2019-05-28T12:03:16.867Z,3.03
2019-05-28T12:05:46.360Z,3.00
2019-05-28T12:08:15.946Z,3.10
2019-05-28T12:13:51.138Z,2.40
2019-05-28T12:16:20.680Z,2.10
2019-05-28T12:18:52.180Z,2.27
2019-05-28T12:21:21.787Z,2.40
2019-05-28T12:23:51.288Z,2.10
2019-05-28T12:26:20.791Z,2.20
2019-05-28T12:28:50.319Z,2.00
2019-05-28T12:31:19.785Z,2.00
2019-05-28T12:33:49.262Z,2.27
2019-05-28T12:36:19.211Z,2.20
2019-05-28T12:38:48.726Z,1.97
2019-05-28T12:41:18.218Z,2.20
2019-05-28T12:43:48.793Z,1.90
2019-05-28T12:46:18.279Z,1.70
2019-05-28T12:48:47.818Z,1.87
2019-05-28T12:51:17.412Z,1.70
2019-05-28T12:53:50.610Z,1.80
2019-05-28T12:56:20.443Z,1.90
2019-05-28T12:58:50.028Z,1.80
2019-05-28T13:01:19.572Z,1.70
2019-05-28T13:03:52.048Z,1.70
2019-05-28T13:09:15.996Z,1.90
2019-05-28T13:11:45.524Z,1.90
2019-05-28T13:14:15.018Z,1.80
2019-05-28T13:16:44.861Z,1.90
2019-05-28T13:19:14.439Z,2.10
2019-05-28T13:21:43.923Z,2.10
2019-05-28T13:24:13.483Z,2.10
2019-05-28T13:29:51.930Z,2.50
2019-05-28T13:32:21.844Z,3.07
2019-05-28T13:34:51.470Z,3.00
2019-05-28T13:37:22.083Z,2.60
2019-05-28T13:39:51.587Z,2.20
2019-05-28T13:42:21.093Z,2.40
2019-05-28T13:44:52.826Z,2.30
2019-05-28T13:47:33.484Z,1.97
2019-05-28T13:50:00.871Z,2.60
2019-05-28T13:52:31.751Z,2.40
2019-05-28T13:55:01.264Z,2.10
2019-05-28T13:57:30.847Z,2.10
2019-05-28T14:02:59.737Z,2.03
2019-05-28T14:05:29.167Z,2.10
2019-05-28T14:07:58.605Z,2.43
2019-05-28T14:10:28.554Z,2.20
2019-05-28T14:12:58.012Z,2.27
2019-05-28T14:15:27.953Z,2.23
2019-05-28T14:17:57.821Z,2.13
2019-05-28T14:26:12.632Z,2.13
2019-05-28T14:28:42.195Z,2.17
2019-05-28T14:31:11.718Z,2.00
2019-05-28T14:33:41.288Z,2.20
2019-05-28T14:39:16.490Z,2.40
2019-05-28T14:41:47.724Z,2.40
2019-05-28T14:44:18.701Z,2.40
2019-05-28T14:46:50.022Z,3.03
2019-05-28T14:49:19.901Z,2.60
2019-05-28T14:51:49.566Z,2.63
2019-05-28T14:54:19.121Z,2.43
2019-05-28T14:56:48.633Z,2.93
2019-05-28T14:59:20.277Z,2.70
2019-05-28T15:01:52.417Z,2.67
2019-05-28T15:04:22.364Z,3.00
2019-05-28T15:06:56.949Z,3.40
2019-05-28T15:09:24.584Z,2.80
2019-05-28T15:11:55.357Z,3.40
2019-05-28T15:14:25.158Z,3.90
2019-05-28T15:16:54.684Z,3.70
2019-05-28T15:19:24.131Z,4.10
2019-05-28T15:21:53.652Z,4.73
2019-05-28T15:24:24.021Z,5.70
2019-05-28T15:26:55.199Z,6.47
2019-05-28T15:29:26.767Z,4.93
2019-05-28T15:31:57.193Z,5.10
2019-05-28T15:34:46.077Z,6.00
2019-05-28T15:37:16.725Z,5.73
2019-05-28T15:39:46.321Z,6.00
2019-05-28T15:42:20.568Z,6.30
2019-05-28T15:45:08.468Z,6.60
2019-05-28T15:47:38.799Z,6.90
2019-05-28T15:50:11.630Z,6.40
2019-05-28T15:52:41.159Z,6.70
2019-05-28T15:55:11.292Z,7.17
2019-05-28T15:57:40.821Z,6.97
2019-05-28T16:00:11.371Z,6.47
2019-05-28T16:02:40.936Z,6.40
2019-05-28T16:05:11.888Z,6.50
2019-05-28T16:07:42.251Z,6.40
2019-05-28T16:10:11.768Z,6.97
2019-05-28T16:12:41.282Z,5.93
2019-05-28T16:15:11.148Z,6.10
2019-05-28T16:17:40.693Z,6.70
2019-05-28T16:20:11.073Z,6.70
2019-05-28T16:22:40.632Z,7.03
2019-05-28T16:25:10.943Z,7.03
2019-05-28T16:27:40.475Z,6.87
2019-05-28T16:30:10.753Z,7.00
2019-05-28T16:32:43.977Z,6.43
2019-05-28T16:35:16.432Z,6.80
2019-05-28T16:40:48.752Z,6.63
2019-05-28T16:43:18.328Z,6.50
2019-05-28T16:45:47.942Z,6.57
2019-05-28T16:48:17.444Z,7.07
2019-05-28T16:50:47.428Z,6.60
2019-05-28T16:53:17.381Z,6.33
2019-05-28T16:58:33.034Z,6.70
2019-05-28T17:01:21.162Z,6.40
2019-05-28T17:03:33.733Z,6.77
2019-05-28T17:06:06.262Z,6.60
2019-05-28T17:08:36.055Z,6.63
2019-05-28T17:11:05.573Z,6.80
2019-05-28T17:13:35.114Z,6.70
2019-05-28T17:16:05.887Z,6.90
2019-05-28T17:18:35.327Z,6.63
2019-05-28T17:21:05.244Z,7.27
2019-05-28T17:23:34.748Z,6.77
2019-05-28T17:26:05.637Z,6.80
2019-05-28T17:28:37.993Z,6.70
2019-05-28T17:31:07.888Z,7.50
2019-05-28T17:33:38.289Z,6.40
2019-05-28T17:39:13.911Z,9.40
2019-05-28T17:44:29.811Z,9.17
2019-05-28T17:46:59.377Z,9.27
2019-05-28T17:49:29.251Z,8.83
2019-05-28T17:51:58.796Z,9.00
2019-05-28T17:54:28.601Z,7.70
2019-05-28T17:56:58.445Z,9.50
2019-05-28T17:59:27.929Z,8.87
2019-05-28T18:01:57.535Z,9.07
2019-05-28T18:04:27.044Z,10.53
2019-05-28T18:06:56.660Z,6.57
2019-05-28T18:09:26.214Z,5.80
2019-05-28T18:11:55.758Z,4.20
2019-05-28T18:14:26.310Z,4.03
2019-05-28T18:16:55.867Z,5.10
2019-05-28T18:19:25.386Z,5.70
2019-05-28T18:21:54.943Z,4.80
2019-05-28T18:24:25.778Z,4.90
2019-05-28T18:26:55.332Z,4.07
2019-05-28T18:32:26.418Z,3.53
2019-05-28T18:34:56.729Z,3.07
2019-05-28T18:37:26.667Z,3.40
2019-05-28T18:39:57.643Z,3.10
2019-05-28T18:42:27.150Z,2.87
2019-05-28T18:44:56.986Z,3.07
2019-05-28T18:47:51.430Z,2.93
2019-05-28T18:50:21.999Z,3.33
2019-05-28T18:52:51.856Z,3.43
2019-05-28T18:55:23.597Z,4.10
2019-05-28T19:00:51.970Z,3.07
2019-05-28T19:03:21.651Z,3.00
2019-05-28T19:05:51.847Z,3.30
2019-05-28T19:08:21.349Z,3.63
2019-05-28T19:10:50.955Z,3.03
2019-05-28T19:13:20.448Z,3.00
2019-05-28T19:15:52.159Z,3.30
2019-05-28T19:18:22.101Z,3.90
2019-05-28T19:20:53.319Z,3.27
2019-05-28T19:26:32.852Z,3.17
2019-05-28T19:29:02.515Z,3.43
2019-05-28T19:31:32.455Z,3.30
2019-05-28T19:37:03.645Z,5.63
2019-05-28T19:39:33.913Z,4.90
2019-05-28T19:42:04.517Z,3.77
2019-05-28T19:44:34.484Z,6.90
2019-05-28T19:47:04.066Z,3.37
2019-05-28T19:49:33.599Z,3.57
2019-05-28T19:52:03.228Z,3.43
2019-05-28T19:54:32.764Z,3.30
2019-05-28T19:57:02.262Z,3.83
2019-05-28T19:59:34.058Z,4.47
2019-05-28T20:02:03.713Z,3.73
2019-05-28T20:04:33.207Z,3.17
2019-05-28T20:07:02.815Z,3.00
2019-05-28T20:09:32.649Z,3.93
2019-05-28T20:12:12.399Z,3.60
2019-05-28T20:14:35.369Z,3.60
2019-05-28T20:17:05.519Z,3.47
2019-05-28T20:19:35.426Z,3.27
2019-05-28T20:22:05.016Z,3.27
2019-05-28T20:24:34.880Z,3.47
2019-05-28T20:27:04.502Z,3.03
2019-05-28T20:29:34.030Z,5.80
2019-05-28T20:32:04.944Z,10.80
2019-05-28T20:34:35.097Z,10.87
2019-05-28T20:37:05.779Z,10.30
2019-05-28T20:39:35.435Z,9.50
2019-05-28T20:42:06.177Z,6.57
2019-05-28T20:44:35.898Z,9.60
2019-05-28T20:47:06.945Z,5.43
2019-05-28T20:49:39.618Z,4.00
2019-05-28T20:52:09.764Z,3.60
2019-05-28T20:54:39.290Z,10.70
2019-05-28T20:57:08.839Z,4.13
2019-05-28T20:59:38.723Z,8.30
2019-05-28T21:02:08.235Z,4.30
2019-05-28T21:04:37.739Z,4.23
2019-05-28T21:07:07.247Z,3.77
2019-05-28T21:09:38.938Z,3.23
2019-05-28T21:12:09.262Z,6.00
2019-05-28T21:14:38.749Z,7.17
2019-05-28T21:17:09.082Z,4.00
2019-05-28T21:19:38.746Z,11.20
2019-05-28T21:28:08.296Z,2.40
2019-05-28T21:30:38.739Z,2.30
2019-05-28T21:33:08.542Z,2.63
2019-05-28T21:35:38.381Z,2.40
2019-05-28T21:38:07.936Z,2.37
2019-05-28T21:40:38.311Z,2.30
2019-05-28T21:43:09.943Z,2.53
2019-05-28T21:45:39.310Z,2.30
2019-05-28T21:48:09.221Z,1.80
2019-05-28T21:50:39.037Z,2.00
2019-05-28T21:53:08.567Z,2.07
2019-05-28T21:55:38.464Z,2.30
2019-05-28T21:58:08.032Z,2.20
2019-05-28T22:01:00.049Z,2.40
2019-05-28T22:03:31.927Z,2.23
2019-05-28T22:06:03.487Z,2.30
2019-05-28T22:08:33.320Z,2.20
2019-05-28T22:11:03.925Z,3.03
2019-05-28T22:13:33.591Z,2.23
2019-05-28T22:16:04.288Z,2.20
2019-05-28T22:18:33.892Z,2.30
2019-05-28T22:21:04.426Z,2.40
2019-05-28T22:23:34.426Z,2.53
2019-05-28T22:26:04.996Z,2.50
2019-05-28T22:28:34.919Z,2.40
2019-05-28T22:31:04.421Z,2.50
2019-05-28T22:33:34.443Z,2.53
2019-05-28T22:36:03.981Z,2.20
2019-05-28T22:38:33.829Z,2.37
2019-05-28T22:41:04.427Z,2.20
2019-05-28T22:43:34.044Z,2.50
2019-05-28T22:46:03.555Z,2.50
2019-05-28T22:48:33.095Z,2.50
2019-05-28T22:51:03.628Z,2.50
2019-05-28T22:53:33.200Z,2.40
2019-05-28T22:56:04.951Z,2.47
2019-05-28T22:58:33.844Z,2.60
2019-05-28T23:01:04.532Z,2.40
2019-05-28T23:03:34.213Z,2.67
2019-05-28T23:06:03.658Z,2.30
2019-05-28T23:08:33.103Z,2.67
2019-05-28T23:11:03.791Z,2.20
2019-05-28T23:13:46.037Z,2.83
2019-05-28T23:16:06.202Z,2.60
2019-05-28T23:18:35.768Z,2.53
2019-05-28T23:21:05.315Z,2.87
2019-05-28T23:23:34.813Z,2.93
2019-05-28T23:26:05.280Z,3.07
2019-05-28T23:28:35.691Z,2.80
2019-05-28T23:31:05.923Z,3.00
2019-05-28T23:33:35.821Z,2.73
2019-05-28T23:36:06.575Z,2.83
2019-05-28T23:38:36.964Z,3.20
2019-05-28T23:41:07.222Z,2.80
2019-05-28T23:43:36.713Z,3.10
2019-05-28T23:46:07.820Z,2.90
2019-05-28T23:48:37.320Z,2.97
2019-05-28T23:51:06.825Z,3.03
2019-05-28T23:53:36.258Z,3.13
2019-05-28T23:56:05.776Z,3.40
2019-05-28T23:58:35.221Z,3.30
